createdAt,value
2018-06-24T00:00:39.279Z,2.10
2018-06-24T00:03:07.788Z,1.00
2018-06-24T00:05:36.531Z,1.40
2018-06-24T00:08:05.302Z,2.70
2018-06-24T00:10:33.793Z,1.90
2018-06-24T00:13:02.186Z,1.80
2018-06-24T00:15:30.839Z,1.00
2018-06-24T00:17:59.599Z,1.40
2018-06-24T00:22:56.159Z,2.30
2018-06-24T00:25:24.504Z,2.70
2018-06-24T00:27:53.262Z,2.40
2018-06-24T00:30:21.831Z,2.50
2018-06-24T00:32:50.430Z,2.60
2018-06-24T00:35:19.088Z,2.40
2018-06-24T00:40:15.918Z,2.60
2018-06-24T00:42:44.384Z,3.00
2018-06-24T00:45:13.179Z,2.80
2018-06-24T00:47:41.596Z,3.20
2018-06-24T00:50:10.102Z,3.80
2018-06-24T00:52:38.682Z,4.40
2018-06-24T00:55:07.242Z,4.80
2018-06-24T00:57:35.970Z,4.90
2018-06-24T01:00:15.026Z,7.00
2018-06-24T01:02:43.337Z,6.80
2018-06-24T01:05:12.753Z,7.40
2018-06-24T01:07:42.522Z,7.90
2018-06-24T01:10:11.117Z,8.50
2018-06-24T01:12:40.118Z,8.60
2018-06-24T01:15:08.703Z,9.40
2018-06-24T01:17:37.271Z,9.30
2018-06-24T01:20:06.166Z,10.20
2018-06-24T01:22:34.629Z,11.40
2018-06-24T01:25:03.355Z,12.10
2018-06-24T01:27:31.907Z,11.70
2018-06-24T01:30:00.282Z,14.40
2018-06-24T01:32:28.684Z,14.90
2018-06-24T01:34:57.069Z,15.70
2018-06-24T01:37:25.590Z,15.60
2018-06-24T01:39:54.205Z,16.50
2018-06-24T01:42:22.797Z,17.40
2018-06-24T01:44:51.204Z,19.20
2018-06-24T01:47:19.615Z,19.80
2018-06-24T01:49:48.119Z,20.30
2018-06-24T01:52:16.820Z,20.50
2018-06-24T01:54:45.288Z,19.00
2018-06-24T01:57:13.894Z,17.40
2018-06-24T01:59:42.306Z,17.80
2018-06-24T02:02:10.868Z,18.80
2018-06-24T02:04:39.204Z,19.20
2018-06-24T02:07:07.973Z,20.30
2018-06-24T02:09:36.294Z,20.10
2018-06-24T02:12:04.721Z,20.40
2018-06-24T02:17:01.825Z,22.30
2018-06-24T02:19:30.386Z,21.50
2018-06-24T02:21:58.847Z,22.40
2018-06-24T02:24:27.484Z,22.80
2018-06-24T02:26:56.169Z,23.50
2018-06-24T02:29:24.647Z,23.80
2018-06-24T02:31:53.079Z,22.90
2018-06-24T02:34:21.520Z,23.20
2018-06-24T02:36:50.003Z,24.40
2018-06-24T02:39:18.416Z,26.20
2018-06-24T02:41:46.936Z,27.00
2018-06-24T02:44:15.578Z,27.50
2018-06-24T02:46:44.377Z,27.40
2018-06-24T02:49:13.135Z,26.80
2018-06-24T02:51:41.906Z,27.30
2018-06-24T02:54:10.621Z,27.80
2018-06-24T02:56:39.121Z,27.80
2018-06-24T02:59:07.449Z,28.40
2018-06-24T03:01:35.966Z,28.70
2018-06-24T03:04:04.457Z,28.40
2018-06-24T03:06:33.194Z,28.50
2018-06-24T03:09:01.675Z,29.50
2018-06-24T03:11:30.359Z,31.20
2018-06-24T03:13:58.877Z,31.00
2018-06-24T03:16:27.263Z,30.40
2018-06-24T03:21:24.067Z,30.70
2018-06-24T03:23:52.555Z,31.00
2018-06-24T03:26:21.146Z,31.70
2018-06-24T03:28:49.660Z,32.40
2018-06-24T03:31:18.040Z,33.30
2018-06-24T03:33:46.482Z,33.80
2018-06-24T03:36:15.087Z,31.90
2018-06-24T03:38:43.457Z,32.30
2018-06-24T03:41:12.323Z,31.90
2018-06-24T03:43:40.938Z,30.80
2018-06-24T03:46:09.593Z,31.30
2018-06-24T03:48:38.288Z,31.00
2018-06-24T03:51:06.671Z,30.30
2018-06-24T03:53:35.027Z,30.40
2018-06-24T03:56:03.460Z,29.60
2018-06-24T03:58:31.808Z,30.90
2018-06-24T04:01:00.304Z,31.40
2018-06-24T04:03:28.785Z,31.50
2018-06-24T04:05:57.362Z,33.60
2018-06-24T04:08:25.717Z,33.10
2018-06-24T04:10:54.273Z,33.70
2018-06-24T04:13:22.873Z,33.10
2018-06-24T04:15:52.328Z,31.60
2018-06-24T04:20:49.279Z,29.20
2018-06-24T04:23:17.781Z,29.70
2018-06-24T04:25:46.491Z,30.00
2018-06-24T04:30:42.998Z,28.20
2018-06-24T04:33:11.386Z,26.40
2018-06-24T04:35:39.889Z,25.20
2018-06-24T04:38:08.518Z,23.50
2018-06-24T04:40:36.971Z,21.10
2018-06-24T04:43:05.506Z,21.50
2018-06-24T04:45:34.299Z,21.90
2018-06-24T04:48:02.872Z,21.30
2018-06-24T04:52:59.494Z,17.30
2018-06-24T04:55:28.092Z,15.70
2018-06-24T04:57:56.694Z,16.40
2018-06-24T05:00:25.061Z,16.70
2018-06-24T05:02:53.584Z,16.30
2018-06-24T05:05:22.051Z,15.30
2018-06-24T05:07:50.414Z,16.30
2018-06-24T05:10:19.103Z,14.10
2018-06-24T05:12:47.770Z,14.20
2018-06-24T05:15:16.167Z,14.70
2018-06-24T05:17:44.651Z,14.80
2018-06-24T05:20:13.025Z,14.30
2018-06-24T05:22:41.515Z,14.80
2018-06-24T05:25:10.237Z,15.00
2018-06-24T05:27:39.094Z,15.20
2018-06-24T05:30:07.447Z,13.20
2018-06-24T05:32:35.742Z,14.00
2018-06-24T05:35:04.348Z,12.70
2018-06-24T05:37:32.812Z,13.30
2018-06-24T05:40:01.241Z,12.70
2018-06-24T05:42:29.935Z,11.50
2018-06-24T05:44:58.563Z,11.10
2018-06-24T05:47:27.045Z,10.70
2018-06-24T05:49:55.745Z,9.90
2018-06-24T05:52:24.322Z,9.20
2018-06-24T05:54:52.763Z,11.80
2018-06-24T05:57:21.299Z,9.70
2018-06-24T05:59:50.107Z,9.20
2018-06-24T06:02:18.684Z,8.10
2018-06-24T06:04:47.228Z,8.80
2018-06-24T06:07:15.683Z,8.00
2018-06-24T06:09:44.303Z,6.40
2018-06-24T06:12:12.872Z,6.80
2018-06-24T06:14:42.700Z,6.30
2018-06-24T06:17:12.319Z,5.30
2018-06-24T06:19:40.873Z,4.90
2018-06-24T06:22:09.542Z,4.10
2018-06-24T06:24:38.057Z,1.00
2018-06-24T06:27:06.618Z,1.00
2018-06-24T06:29:44.726Z,1.00
2018-06-24T06:32:13.299Z,1.00
2018-06-24T06:34:45.066Z,1.00
2018-06-24T06:37:19.796Z,1.00
2018-06-24T06:39:48.243Z,1.00
2018-06-24T06:42:17.431Z,1.00
2018-06-24T06:44:46.450Z,1.00
2018-06-24T06:47:15.043Z,1.00
2018-06-24T06:52:16.831Z,1.00
2018-06-24T06:54:45.533Z,1.00
2018-06-24T06:57:14.147Z,1.00
2018-06-24T06:59:42.754Z,1.00
2018-06-24T07:02:11.546Z,1.00
2018-06-24T07:04:40.623Z,1.00
2018-06-24T07:07:09.270Z,1.00
2018-06-24T07:09:37.834Z,1.00
2018-06-24T07:12:06.548Z,1.00
2018-06-24T07:14:41.573Z,1.00
2018-06-24T07:17:10.123Z,1.00
2018-06-24T07:19:40.068Z,1.00
2018-06-24T07:22:08.743Z,1.00
2018-06-24T07:24:37.128Z,1.00
2018-06-24T07:27:05.751Z,1.00
2018-06-24T07:29:35.058Z,1.00
2018-06-24T07:32:03.687Z,1.00
2018-06-24T07:34:32.264Z,1.00
2018-06-24T07:37:00.757Z,1.00
2018-06-24T07:39:29.468Z,1.00
2018-06-24T07:41:59.991Z,1.00
2018-06-24T07:44:29.609Z,1.00
2018-06-24T07:46:59.160Z,1.00
2018-06-24T07:49:27.708Z,1.00
2018-06-24T07:51:56.193Z,1.00
2018-06-24T07:54:24.667Z,1.00
2018-06-24T07:56:53.161Z,1.00
2018-06-24T07:59:21.584Z,1.00
2018-06-24T08:01:50.366Z,1.00
2018-06-24T08:04:18.758Z,1.00
2018-06-24T08:06:47.251Z,1.00
2018-06-24T08:09:15.833Z,1.00
2018-06-24T08:11:44.567Z,1.00
2018-06-24T08:14:13.080Z,1.00
2018-06-24T08:16:41.583Z,1.00
2018-06-24T08:19:10.142Z,1.00
2018-06-24T08:21:38.912Z,1.00
2018-06-24T08:24:07.322Z,1.00
2018-06-24T08:26:36.969Z,1.00
2018-06-24T08:29:05.385Z,1.00
2018-06-24T08:31:33.928Z,1.00
2018-06-24T08:34:03.382Z,1.00
2018-06-24T08:36:31.937Z,1.00
2018-06-24T08:39:00.447Z,1.00
2018-06-24T08:41:29.155Z,1.00
2018-06-24T08:43:57.746Z,1.00
2018-06-24T08:46:26.180Z,1.00
2018-06-24T08:48:54.569Z,1.00
2018-06-24T08:51:22.953Z,1.00
2018-06-24T08:53:51.310Z,1.00
2018-06-24T08:56:19.611Z,1.00
2018-06-24T08:58:48.088Z,1.00
2018-06-24T09:03:45.184Z,1.00
2018-06-24T09:06:13.492Z,1.00
2018-06-24T09:08:46.414Z,1.00
2018-06-24T09:11:15.119Z,1.00
2018-06-24T09:13:44.048Z,1.00
2018-06-24T09:16:12.316Z,1.00
2018-06-24T09:18:41.802Z,1.00
2018-06-24T09:21:10.683Z,1.00
2018-06-24T09:23:39.084Z,1.00
2018-06-24T09:26:07.471Z,1.00
2018-06-24T09:28:35.801Z,1.00
2018-06-24T09:31:04.400Z,1.00
2018-06-24T09:36:01.157Z,1.00
2018-06-24T09:38:29.731Z,1.00
2018-06-24T09:40:58.272Z,1.00
2018-06-24T09:43:26.814Z,1.00
2018-06-24T09:45:55.222Z,1.00
2018-06-24T09:48:27.045Z,1.00
2018-06-24T09:50:55.558Z,1.00
2018-06-24T09:55:52.493Z,1.00
2018-06-24T10:00:54.834Z,1.00
2018-06-24T10:03:23.368Z,1.00
2018-06-24T10:05:51.978Z,1.00
2018-06-24T10:08:20.415Z,1.00
2018-06-24T10:10:48.800Z,1.00
2018-06-24T10:13:17.264Z,1.00
2018-06-24T10:15:45.886Z,1.00
2018-06-24T10:18:14.319Z,1.00
2018-06-24T10:20:42.815Z,1.00
2018-06-24T10:23:11.181Z,1.00
2018-06-24T10:25:39.663Z,1.00
2018-06-24T10:28:08.171Z,1.00
2018-06-24T10:30:36.557Z,1.00
2018-06-24T10:33:05.345Z,1.00
2018-06-24T10:35:33.762Z,1.00
2018-06-24T10:38:02.508Z,1.00
2018-06-24T10:40:30.884Z,1.00
2018-06-24T10:42:59.255Z,1.00
2018-06-24T10:45:27.586Z,1.00
2018-06-24T10:47:56.130Z,1.00
2018-06-24T10:50:24.527Z,1.00
2018-06-24T10:52:53.376Z,1.00
2018-06-24T10:55:21.826Z,1.00
2018-06-24T10:57:50.301Z,1.00
2018-06-24T11:05:15.192Z,1.00
2018-06-24T11:07:43.723Z,1.00
2018-06-24T11:12:42.951Z,1.00
2018-06-24T11:15:11.791Z,1.00
2018-06-24T11:17:40.664Z,1.00
2018-06-24T11:20:09.105Z,1.00
2018-06-24T11:22:37.467Z,1.00
2018-06-24T11:25:06.091Z,1.00
2018-06-24T11:27:35.380Z,1.00
2018-06-24T11:30:03.710Z,1.00
2018-06-24T11:32:32.101Z,1.00
2018-06-24T11:35:00.600Z,1.00
2018-06-24T11:37:29.022Z,1.00
2018-06-24T11:39:57.695Z,1.00
2018-06-24T11:44:54.648Z,1.00
2018-06-24T11:47:22.982Z,1.00
2018-06-24T11:49:51.502Z,1.00
2018-06-24T11:52:21.687Z,1.00
2018-06-24T11:54:50.134Z,1.00
2018-06-24T11:57:19.100Z,1.00
2018-06-24T11:59:47.680Z,1.00
2018-06-24T12:02:16.110Z,1.00
2018-06-24T12:04:44.435Z,1.00
2018-06-24T12:07:12.918Z,1.00
2018-06-24T12:09:41.555Z,1.00
2018-06-24T12:12:10.040Z,1.00
2018-06-24T12:14:38.523Z,1.00
2018-06-24T12:17:07.041Z,1.00
2018-06-24T12:19:35.376Z,1.00
2018-06-24T12:22:03.946Z,1.00
2018-06-24T12:24:32.343Z,1.00
2018-06-24T12:27:00.940Z,1.00
2018-06-24T12:29:29.271Z,1.00
2018-06-24T12:31:57.972Z,1.00
2018-06-24T12:34:26.369Z,1.00
2018-06-24T12:36:54.842Z,1.00
2018-06-24T12:39:23.203Z,1.00
2018-06-24T12:41:51.524Z,1.00
2018-06-24T12:44:20.027Z,1.00
2018-06-24T12:46:48.482Z,1.00
2018-06-24T12:49:16.926Z,1.00
2018-06-24T12:51:45.370Z,1.00
2018-06-24T12:54:13.799Z,1.00
2018-06-24T12:56:42.297Z,1.00
2018-06-24T12:59:11.015Z,1.00
2018-06-24T13:01:39.240Z,1.00
2018-06-24T13:04:09.187Z,1.00
2018-06-24T13:06:37.809Z,1.00
2018-06-24T13:09:09.477Z,1.00
2018-06-24T13:11:38.087Z,1.00
2018-06-24T13:14:06.978Z,1.00
2018-06-24T13:16:35.542Z,1.00
2018-06-24T13:19:04.497Z,1.00
2018-06-24T13:21:33.344Z,1.00
2018-06-24T13:24:02.043Z,1.00
2018-06-24T13:26:30.932Z,1.00
2018-06-24T13:28:59.442Z,1.00
2018-06-24T13:31:27.992Z,1.00
2018-06-24T13:33:56.484Z,1.00
2018-06-24T13:36:25.021Z,1.00
2018-06-24T13:38:54.046Z,1.00
2018-06-24T13:41:22.512Z,1.00
2018-06-24T13:43:50.909Z,1.00
2018-06-24T13:46:19.376Z,1.00
2018-06-24T13:48:47.906Z,1.00
2018-06-24T13:51:16.233Z,1.00
2018-06-24T13:53:44.817Z,1.00
2018-06-24T13:56:13.311Z,1.00
2018-06-24T13:58:41.716Z,1.00
2018-06-24T14:01:10.291Z,1.00
2018-06-24T14:06:07.171Z,1.00
2018-06-24T14:11:07.392Z,1.00
2018-06-24T14:13:35.855Z,1.00
2018-06-24T14:16:15.179Z,1.00
2018-06-24T14:18:43.750Z,1.00
2018-06-24T14:21:12.429Z,1.00
2018-06-24T14:23:41.121Z,1.00
2018-06-24T14:26:09.887Z,1.00
2018-06-24T14:28:38.395Z,1.00
2018-06-24T14:31:07.360Z,1.00
2018-06-24T14:33:35.979Z,1.00
2018-06-24T14:36:04.572Z,1.00
2018-06-24T14:38:33.263Z,1.00
2018-06-24T14:41:01.859Z,1.00
2018-06-24T14:43:30.397Z,1.00
2018-06-24T14:45:58.885Z,1.00
2018-06-24T14:48:27.470Z,1.00
2018-06-24T14:50:55.945Z,1.00
2018-06-24T14:55:52.444Z,1.00
2018-06-24T14:58:21.029Z,1.00
2018-06-24T15:00:49.737Z,1.00
2018-06-24T15:03:18.286Z,1.00
2018-06-24T15:05:46.886Z,1.00
2018-06-24T15:08:15.788Z,1.00
2018-06-24T15:10:44.316Z,1.00
2018-06-24T15:13:13.333Z,1.00
2018-06-24T15:15:49.680Z,1.00
2018-06-24T15:18:18.087Z,1.00
2018-06-24T15:20:46.448Z,1.00
2018-06-24T15:23:15.163Z,1.00
2018-06-24T15:25:43.609Z,1.00
2018-06-24T15:28:12.004Z,1.00
2018-06-24T15:30:40.898Z,1.00
2018-06-24T15:33:09.438Z,1.00
2018-06-24T15:35:37.959Z,1.00
2018-06-24T15:38:06.354Z,1.00
2018-06-24T15:40:35.122Z,1.00
2018-06-24T15:43:03.741Z,1.00
2018-06-24T15:45:43.507Z,1.00
2018-06-24T15:48:12.342Z,1.00
2018-06-24T15:50:40.829Z,1.00
2018-06-24T15:53:09.297Z,1.00
2018-06-24T15:55:37.973Z,1.00
2018-06-24T15:58:06.481Z,1.00
2018-06-24T16:00:34.945Z,1.00
2018-06-24T16:03:03.354Z,1.00
2018-06-24T16:05:32.137Z,1.00
2018-06-24T16:08:00.604Z,1.00
2018-06-24T16:10:29.265Z,1.00
2018-06-24T16:12:57.758Z,1.00
2018-06-24T16:15:28.310Z,1.00
2018-06-24T16:17:56.970Z,1.00
2018-06-24T16:20:26.066Z,1.00
2018-06-24T16:22:54.263Z,1.00
2018-06-24T16:25:22.724Z,1.00
2018-06-24T16:30:19.529Z,1.00
2018-06-24T16:32:48.013Z,1.00
2018-06-24T16:35:16.357Z,1.00
2018-06-24T16:37:44.729Z,1.00
2018-06-24T16:40:13.167Z,1.00
2018-06-24T16:42:41.418Z,1.00
2018-06-24T16:45:09.846Z,1.00
2018-06-24T16:47:38.242Z,1.00
2018-06-24T16:50:06.546Z,1.00
2018-06-24T16:52:36.031Z,1.00
2018-06-24T16:55:09.515Z,1.00
2018-06-24T16:57:37.902Z,1.00
2018-06-24T17:00:06.799Z,1.00
2018-06-24T17:02:35.242Z,1.00
2018-06-24T17:05:03.553Z,1.00
2018-06-24T17:07:32.007Z,1.00
2018-06-24T17:10:00.434Z,1.00
2018-06-24T17:12:28.942Z,1.00
2018-06-24T17:14:57.365Z,1.00
2018-06-24T17:17:26.290Z,1.00
2018-06-24T17:19:55.343Z,1.00
2018-06-24T17:22:23.762Z,1.00
2018-06-24T17:24:52.570Z,1.00
2018-06-24T17:27:21.114Z,1.00
2018-06-24T17:32:17.881Z,1.00
2018-06-24T17:37:14.405Z,1.00
2018-06-24T17:39:43.050Z,1.00
2018-06-24T17:42:11.642Z,1.00
2018-06-24T17:44:40.153Z,1.00
2018-06-24T17:47:08.569Z,1.00
2018-06-24T17:49:37.020Z,1.00
2018-06-24T17:52:05.654Z,1.00
2018-06-24T17:54:34.445Z,1.00
2018-06-24T17:57:02.831Z,1.00
2018-06-24T17:59:31.297Z,1.00
2018-06-24T18:01:59.758Z,1.00
2018-06-24T18:04:28.552Z,1.00
2018-06-24T18:06:59.024Z,1.00
2018-06-24T18:09:28.027Z,1.00
2018-06-24T18:11:56.658Z,1.00
2018-06-24T18:14:27.332Z,1.00
2018-06-24T18:16:56.050Z,1.00
2018-06-24T18:19:24.549Z,1.00
2018-06-24T18:21:53.317Z,1.00
2018-06-24T18:24:21.726Z,1.00
2018-06-24T18:26:50.401Z,1.00
2018-06-24T18:29:19.598Z,1.00
2018-06-24T18:31:48.549Z,1.00
2018-06-24T18:34:16.938Z,1.00
2018-06-24T18:36:45.453Z,1.00
2018-06-24T18:39:13.920Z,1.00
2018-06-24T18:41:42.461Z,1.00
2018-06-24T18:44:11.024Z,1.00
2018-06-24T18:46:39.572Z,1.00
2018-06-24T18:49:08.159Z,1.00
2018-06-24T18:54:05.112Z,1.00
2018-06-24T18:56:33.777Z,1.00
2018-06-24T18:59:02.455Z,1.00
2018-06-24T19:01:35.799Z,1.00
2018-06-24T19:04:04.435Z,1.00
2018-06-24T19:06:33.879Z,1.00
2018-06-24T19:09:02.257Z,1.00
2018-06-24T19:13:58.823Z,1.00
2018-06-24T19:16:27.283Z,1.00
2018-06-24T19:18:55.834Z,1.00
2018-06-24T19:21:24.151Z,1.00
2018-06-24T19:23:52.462Z,1.00
2018-06-24T19:26:21.023Z,1.00
2018-06-24T19:28:49.415Z,1.00
2018-06-24T19:31:17.862Z,1.00
2018-06-24T19:33:46.197Z,1.00
2018-06-24T19:36:14.710Z,1.00
2018-06-24T19:38:43.807Z,1.00
2018-06-24T19:41:12.097Z,1.00
2018-06-24T19:43:40.567Z,1.00
2018-06-24T19:46:08.944Z,1.00
2018-06-24T19:48:37.417Z,1.00
2018-06-24T19:51:05.947Z,1.00
2018-06-24T19:53:34.421Z,1.00
2018-06-24T19:56:03.879Z,1.00
2018-06-24T19:58:32.379Z,1.00
2018-06-24T20:03:29.049Z,1.00
2018-06-24T20:05:57.712Z,1.00
2018-06-24T20:08:26.002Z,1.00
2018-06-24T20:10:55.418Z,1.00
2018-06-24T20:13:23.818Z,1.00
2018-06-24T20:15:52.195Z,1.00
2018-06-24T20:20:48.736Z,1.00
2018-06-24T20:23:17.513Z,1.00
2018-06-24T20:25:46.187Z,1.00
2018-06-24T20:28:14.766Z,1.00
2018-06-24T20:30:43.367Z,1.00
2018-06-24T20:33:11.996Z,1.00
2018-06-24T20:35:40.574Z,1.00
2018-06-24T20:38:08.906Z,1.00
2018-06-24T20:40:37.274Z,1.00
2018-06-24T20:43:06.193Z,1.00
2018-06-24T20:45:35.170Z,1.00
2018-06-24T20:48:03.630Z,1.00
2018-06-24T20:50:32.918Z,1.00
2018-06-24T20:53:01.517Z,1.00
2018-06-24T20:55:29.899Z,1.00
2018-06-24T20:57:58.396Z,1.00
2018-06-24T21:00:26.974Z,1.00
2018-06-24T21:02:55.593Z,1.00
2018-06-24T21:05:24.135Z,1.00
2018-06-24T21:07:52.710Z,1.00
2018-06-24T21:10:21.210Z,1.00
2018-06-24T21:12:49.783Z,1.00
2018-06-24T21:15:18.269Z,1.00
2018-06-24T21:17:46.839Z,1.00
2018-06-24T21:20:15.211Z,1.00
2018-06-24T21:22:43.602Z,1.00
2018-06-24T21:25:11.883Z,1.00
2018-06-24T21:27:40.486Z,1.00
2018-06-24T21:30:09.066Z,1.00
2018-06-24T21:32:37.538Z,1.00
2018-06-24T21:35:06.193Z,1.00
2018-06-24T21:37:34.709Z,1.00
2018-06-24T21:40:03.260Z,1.00
2018-06-24T21:42:31.563Z,1.00
2018-06-24T21:44:59.934Z,1.00
2018-06-24T21:47:28.410Z,1.00
2018-06-24T21:52:25.058Z,1.00
2018-06-24T21:54:53.770Z,1.00
2018-06-24T21:57:22.246Z,1.00
2018-06-24T21:59:50.909Z,1.00
2018-06-24T22:02:19.381Z,1.00
2018-06-24T22:04:47.706Z,1.00
2018-06-24T22:07:16.378Z,1.00
2018-06-24T22:09:44.796Z,1.00
2018-06-24T22:17:11.355Z,1.00
2018-06-24T22:19:39.809Z,1.00
2018-06-24T22:22:08.190Z,1.00
2018-06-24T22:24:36.538Z,1.00
2018-06-24T22:27:05.123Z,1.00
2018-06-24T22:29:33.646Z,1.00
2018-06-24T22:32:02.066Z,1.00
2018-06-24T22:34:30.479Z,1.00
2018-06-24T22:37:00.168Z,1.00
2018-06-24T22:39:28.694Z,1.00
2018-06-24T22:41:57.474Z,1.00
2018-06-24T22:44:25.820Z,1.00
2018-06-24T22:46:54.384Z,1.00
2018-06-24T22:49:22.826Z,1.00
2018-06-24T22:51:51.292Z,1.00
2018-06-24T22:54:19.997Z,1.00
2018-06-24T22:56:48.515Z,1.00
2018-06-24T22:59:28.111Z,1.00
2018-06-24T23:01:56.774Z,1.00
2018-06-24T23:04:25.245Z,1.00
2018-06-24T23:06:53.665Z,1.10
2018-06-24T23:09:22.619Z,2.00
2018-06-24T23:11:51.591Z,1.40
2018-06-24T23:14:20.098Z,1.80
2018-06-24T23:16:48.552Z,2.10
2018-06-24T23:19:17.100Z,2.30
2018-06-24T23:21:45.588Z,2.70
2018-06-24T23:24:14.038Z,3.20
2018-06-24T23:26:42.684Z,2.80
2018-06-24T23:29:11.933Z,3.30
2018-06-24T23:31:40.424Z,3.60
2018-06-24T23:34:08.912Z,3.70
2018-06-24T23:36:37.384Z,3.90
2018-06-24T23:39:08.147Z,4.40
2018-06-24T23:41:36.946Z,4.30
2018-06-24T23:44:05.477Z,4.40
2018-06-24T23:46:34.041Z,4.40
2018-06-24T23:49:03.357Z,4.50
2018-06-24T23:51:31.770Z,4.90
2018-06-24T23:54:00.295Z,5.10
2018-06-24T23:56:28.652Z,5.20
2018-06-24T23:58:57.042Z,5.30
